createdAt,value
2018-02-22T00:00:07.040Z,-0.39
2018-02-22T00:01:16.744Z,-0.45
2018-02-22T00:02:26.199Z,-0.41
2018-02-22T00:03:36.150Z,-0.38
2018-02-22T00:04:45.585Z,-0.45
2018-02-22T00:05:55.558Z,-0.48
2018-02-22T00:07:05.527Z,-0.45
2018-02-22T00:08:15.491Z,-0.49
2018-02-22T00:09:25.445Z,-0.51
2018-02-22T00:10:35.399Z,-0.46
2018-02-22T00:11:44.578Z,-0.48
2018-02-22T00:12:54.289Z,-0.48
2018-02-22T00:14:04.247Z,-0.56
2018-02-22T00:15:14.457Z,-0.51
2018-02-22T00:16:24.429Z,-0.57
2018-02-22T00:17:33.897Z,-0.59
2018-02-22T00:18:43.598Z,-0.59
2018-02-22T00:19:53.315Z,-0.62
2018-02-22T00:21:03.006Z,-0.57
2018-02-22T00:22:12.971Z,-0.56
2018-02-22T00:23:22.658Z,-0.57
2018-02-22T00:24:32.620Z,-0.57
2018-02-22T00:25:42.332Z,-0.57
2018-02-22T00:26:51.755Z,-0.57
2018-02-22T00:28:01.455Z,-0.56
2018-02-22T00:29:10.954Z,-0.56
2018-02-22T00:30:20.655Z,-0.6
2018-02-22T00:31:30.353Z,-0.67
2018-02-22T00:32:39.792Z,-0.72
2018-02-22T00:33:49.237Z,-0.74
2018-02-22T00:34:59.192Z,-0.7
2018-02-22T00:36:08.114Z,-0.66
2018-02-22T00:37:18.077Z,-0.75
2018-02-22T00:38:28.035Z,-0.75
2018-02-22T00:39:37.730Z,-0.72
2018-02-22T00:40:47.697Z,-0.64
2018-02-22T00:41:57.450Z,-0.8
2018-02-22T00:43:07.409Z,-0.81
2018-02-22T00:44:17.371Z,-0.77
2018-02-22T00:45:27.323Z,-0.8
2018-02-22T00:46:37.297Z,-0.77
2018-02-22T00:47:46.981Z,-0.8
2018-02-22T00:48:56.682Z,-0.8
2018-02-22T00:50:06.630Z,-0.84
2018-02-22T00:51:16.064Z,-0.87
2018-02-22T00:52:25.500Z,-0.78
2018-02-22T00:53:35.452Z,-0.77
2018-02-22T00:54:45.428Z,-0.78
2018-02-22T00:55:55.126Z,-0.87
2018-02-22T00:57:05.090Z,-0.87
2018-02-22T00:58:14.795Z,-0.82
2018-02-22T00:59:24.288Z,-0.84
2018-02-22T01:00:34.265Z,-0.82
2018-02-22T01:01:44.223Z,-0.75
2018-02-22T01:02:53.911Z,-0.74
2018-02-22T01:04:03.345Z,-0.82
2018-02-22T01:05:13.314Z,-0.77
2018-02-22T01:06:22.756Z,-0.78
2018-02-22T01:07:32.647Z,-0.72
2018-02-22T01:08:42.344Z,-0.78
2018-02-22T01:09:52.296Z,-0.82
2018-02-22T01:11:02.259Z,-0.75
2018-02-22T01:12:11.693Z,-0.89
2018-02-22T01:13:21.645Z,-0.77
2018-02-22T01:14:31.600Z,-0.82
2018-02-22T01:15:41.042Z,-0.89
2018-02-22T01:16:50.484Z,-0.84
2018-02-22T01:18:00.443Z,-0.87
2018-02-22T01:19:09.895Z,-0.91
2018-02-22T01:20:19.862Z,-0.8
2018-02-22T01:21:29.821Z,-0.74
2018-02-22T01:22:39.516Z,-0.78
2018-02-22T01:23:49.210Z,-0.8
2018-02-22T01:24:59.224Z,-0.8
2018-02-22T01:26:08.918Z,-0.77
2018-02-22T01:27:18.613Z,-0.81
2018-02-22T01:28:28.566Z,-0.81
2018-02-22T01:29:38.532Z,-0.78
2018-02-22T01:30:48.487Z,-0.77
2018-02-22T01:31:58.435Z,-0.64
2018-02-22T01:33:08.133Z,-0.57
2018-02-22T01:34:18.090Z,-0.56
2018-02-22T01:35:27.783Z,-0.57
2018-02-22T01:36:37.734Z,-0.6
2018-02-22T01:37:47.432Z,-0.62
2018-02-22T01:38:57.141Z,-0.53
2018-02-22T01:40:07.139Z,-0.54
2018-02-22T01:41:16.841Z,-0.53
2018-02-22T01:42:26.800Z,-0.48
2018-02-22T01:43:36.508Z,-0.44
2018-02-22T01:44:46.464Z,-0.38
2018-02-22T01:45:56.164Z,-0.48
2018-02-22T01:47:05.340Z,-0.38
2018-02-22T01:48:15.040Z,-0.41
2018-02-22T01:49:24.988Z,-0.38
2018-02-22T01:50:34.954Z,-0.35
2018-02-22T01:51:44.929Z,-0.31
2018-02-22T01:52:54.618Z,-0.24
2018-02-22T01:54:04.312Z,-0.21
2018-02-22T01:55:14.280Z,-0.26
2018-02-22T01:56:23.980Z,-0.18
2018-02-22T01:57:33.695Z,-0.17
2018-02-22T01:58:43.434Z,-0.24
2018-02-22T01:59:52.874Z,-0.23
2018-02-22T02:01:02.856Z,-0.23
2018-02-22T02:02:12.831Z,-0.28
2018-02-22T02:03:22.786Z,-0.2
2018-02-22T02:04:32.477Z,-0.21
2018-02-22T02:05:42.431Z,-0.2
2018-02-22T02:06:52.124Z,-0.17
2018-02-22T02:08:02.079Z,-0.23
2018-02-22T02:09:11.759Z,-0.23
2018-02-22T02:10:21.459Z,-0.17
2018-02-22T02:11:31.406Z,-0.18
2018-02-22T02:12:40.583Z,-0.17
2018-02-22T02:13:50.543Z,-0.17
2018-02-22T02:15:00.244Z,-0.2
2018-02-22T02:16:09.937Z,-0.12
2018-02-22T02:17:19.893Z,-0.17
2018-02-22T02:18:29.841Z,-0.17
2018-02-22T02:19:39.539Z,-0.18
2018-02-22T02:20:49.510Z,-0.2
2018-02-22T02:21:59.465Z,-0.23
2018-02-22T02:23:09.423Z,-0.15
2018-02-22T02:24:19.387Z,-0.09
2018-02-22T02:25:29.351Z,-0.12
2018-02-22T02:26:39.037Z,-0.15
2018-02-22T02:27:48.985Z,-0.17
2018-02-22T02:28:58.943Z,-0.12
2018-02-22T02:30:08.907Z,-0.13
2018-02-22T02:31:18.613Z,-0.17
2018-02-22T02:32:28.059Z,-0.09
2018-02-22T02:33:37.764Z,-0.09
2018-02-22T02:34:47.746Z,-0.12
2018-02-22T02:35:57.452Z,-0.12
2018-02-22T02:37:06.903Z,-0.1
2018-02-22T02:38:16.336Z,-0.12
2018-02-22T02:39:26.331Z,-0.07
2018-02-22T02:40:36.593Z,0.01
2018-02-22T02:41:46.028Z,-0.05
2018-02-22T02:42:55.731Z,-0.12
2018-02-22T02:44:05.446Z,-0.05
2018-02-22T02:45:15.408Z,-0.05
2018-02-22T02:46:25.114Z,0.02
2018-02-22T02:47:35.090Z,-0.02
2018-02-22T02:48:44.815Z,-0.03
2018-02-22T02:49:54.787Z,-0.05
2018-02-22T02:51:04.482Z,-0.12
2018-02-22T02:52:14.512Z,-0.1
2018-02-22T02:53:24.209Z,-0.02
2018-02-22T02:54:33.672Z,-0.07
2018-02-22T02:55:43.637Z,-0.07
2018-02-22T02:56:53.338Z,-0.03
2018-02-22T02:58:02.787Z,0
2018-02-22T02:59:12.226Z,-0.06
2018-02-22T03:00:21.928Z,0
2018-02-22T03:01:31.897Z,-0.07
2018-02-22T03:02:41.352Z,-0.05
2018-02-22T03:03:51.327Z,-0.07
2018-02-22T03:05:01.302Z,-0.06
2018-02-22T03:06:10.481Z,0
2018-02-22T03:07:20.438Z,-0.1
2018-02-22T03:08:30.394Z,-0.06
2018-02-22T03:09:40.346Z,-0.09
2018-02-22T03:10:50.041Z,-0.06
2018-02-22T03:11:59.731Z,-0.02
2018-02-22T03:13:09.688Z,-0.07
2018-02-22T03:14:19.122Z,-0.02
2018-02-22T03:15:29.086Z,-0.06
2018-02-22T03:16:39.036Z,-0.06
2018-02-22T03:17:48.473Z,-0.06
2018-02-22T03:18:58.424Z,-0.09
2018-02-22T03:20:08.374Z,-0.05
2018-02-22T03:21:18.339Z,-0.1
2018-02-22T03:22:28.560Z,0
2018-02-22T03:23:37.991Z,0.02
2018-02-22T03:24:47.943Z,-0.09
2018-02-22T03:25:57.886Z,-0.02
2018-02-22T03:27:07.590Z,-0.03
2018-02-22T03:28:17.283Z,-0.1
2018-02-22T03:29:27.270Z,-0.13
2018-02-22T03:30:37.231Z,-0.18
2018-02-22T03:31:47.252Z,-0.15
2018-02-22T03:32:56.952Z,-0.1
2018-02-22T03:34:06.388Z,-0.23
2018-02-22T03:35:16.085Z,-0.23
2018-02-22T03:36:26.031Z,-0.2
2018-02-22T03:37:35.983Z,-0.2
2018-02-22T03:38:45.696Z,-0.26
2018-02-22T03:39:54.874Z,-0.27
2018-02-22T03:41:04.573Z,-0.24
2018-02-22T03:42:14.001Z,-0.31
2018-02-22T03:43:23.696Z,-0.3
2018-02-22T03:44:33.645Z,-0.44
2018-02-22T03:45:43.093Z,-0.42
2018-02-22T03:46:52.785Z,-0.48
2018-02-22T03:48:02.495Z,-0.46
2018-02-22T03:49:12.449Z,-0.53
2018-02-22T03:50:22.188Z,-0.59
2018-02-22T03:51:32.145Z,-0.6
2018-02-22T03:52:41.839Z,-0.56
2018-02-22T03:53:51.532Z,-0.6
2018-02-22T03:55:01.230Z,-0.74
2018-02-22T03:56:11.195Z,-0.77
2018-02-22T03:57:21.139Z,-0.77
2018-02-22T03:58:31.113Z,-0.84
2018-02-22T03:59:40.817Z,-0.93
2018-02-22T04:00:50.513Z,-1.04
2018-02-22T04:01:59.690Z,-1.04
2018-02-22T04:03:09.390Z,-1
2018-02-22T04:04:19.081Z,-1.06
2018-02-22T04:05:28.791Z,-1.01
2018-02-22T04:06:38.755Z,-1.11
2018-02-22T04:07:48.454Z,-1.22
2018-02-22T04:08:58.149Z,-1.17
2018-02-22T04:10:07.854Z,-1.3
2018-02-22T04:11:17.549Z,-1.35
2018-02-22T04:12:27.498Z,-1.32
2018-02-22T04:13:37.463Z,-1.27
2018-02-22T04:14:47.409Z,-1.39
2018-02-22T04:15:57.100Z,-1.35
2018-02-22T04:17:07.056Z,-1.46
2018-02-22T04:18:16.564Z,-1.56
2018-02-22T04:19:26.524Z,-1.57
2018-02-22T04:20:35.989Z,-1.54
2018-02-22T04:21:45.690Z,-1.54
2018-02-22T04:22:55.643Z,-1.6
2018-02-22T04:24:05.616Z,-1.57
2018-02-22T04:25:15.316Z,-1.68
2018-02-22T04:26:25.012Z,-1.57
2018-02-22T04:27:34.976Z,-1.63
2018-02-22T04:28:44.928Z,-1.64
2018-02-22T04:29:54.624Z,-1.69
2018-02-22T04:31:04.581Z,-1.72
2018-02-22T04:32:14.018Z,-1.74
2018-02-22T04:33:23.712Z,-1.75
2018-02-22T04:34:33.413Z,-1.71
2018-02-22T04:35:42.852Z,-1.75
2018-02-22T04:36:52.549Z,-1.76
2018-02-22T04:38:02.525Z,-1.89
2018-02-22T04:39:12.484Z,-1.86
2018-02-22T04:40:21.672Z,-1.84
2018-02-22T04:41:31.365Z,-1.92
2018-02-22T04:42:41.062Z,-1.92
2018-02-22T04:43:51.036Z,-1.93
2018-02-22T04:45:00.219Z,-1.94
2018-02-22T04:46:09.924Z,-1.99
2018-02-22T04:47:19.372Z,-1.94
2018-02-22T04:48:29.331Z,-1.92
2018-02-22T04:49:39.282Z,-1.92
2018-02-22T04:50:49.237Z,-1.9
2018-02-22T04:51:59.195Z,-1.9
2018-02-22T04:53:09.151Z,-1.9
2018-02-22T04:54:19.109Z,-1.94
2018-02-22T04:55:28.801Z,-1.93
2018-02-22T04:56:38.767Z,-1.96
2018-02-22T04:57:48.715Z,-1.99
2018-02-22T04:58:58.692Z,-1.89
2018-02-22T05:00:08.650Z,-1.97
2018-02-22T05:01:18.338Z,-1.99
2018-02-22T05:02:27.787Z,-1.96
2018-02-22T05:03:37.734Z,-1.99
2018-02-22T05:04:47.686Z,-2
2018-02-22T05:05:57.114Z,-2.1
2018-02-22T05:07:07.057Z,-2.02
2018-02-22T05:08:16.758Z,-2.08
2018-02-22T05:09:26.185Z,-2.07
2018-02-22T05:10:36.139Z,-2.04
2018-02-22T05:11:45.569Z,-2.13
2018-02-22T05:12:55.011Z,-2.14
2018-02-22T05:14:04.718Z,-2.1
2018-02-22T05:15:14.743Z,-2.2
2018-02-22T05:16:24.700Z,-2.25
2018-02-22T05:17:34.665Z,-2.26
2018-02-22T05:18:44.617Z,-2.26
2018-02-22T05:19:54.582Z,-2.28
2018-02-22T05:21:04.544Z,-2.29
2018-02-22T05:22:13.723Z,-2.29
2018-02-22T05:23:23.422Z,-2.29
2018-02-22T05:24:32.855Z,-2.34
2018-02-22T05:25:42.823Z,-2.39
2018-02-22T05:26:52.773Z,-2.37
2018-02-22T05:28:02.218Z,-2.37
2018-02-22T05:29:11.651Z,-2.47
2018-02-22T05:30:21.098Z,-2.4
2018-02-22T05:31:30.554Z,-2.44
2018-02-22T05:32:40.515Z,-2.5
2018-02-22T05:33:50.471Z,-2.51
2018-02-22T05:34:59.955Z,-2.48
2018-02-22T05:36:09.382Z,-2.47
2018-02-22T05:37:19.087Z,-2.48
2018-02-22T05:38:29.040Z,-2.55
2018-02-22T05:39:39.004Z,-2.48
2018-02-22T05:40:48.450Z,-2.58
2018-02-22T05:41:58.151Z,-2.55
2018-02-22T05:43:07.856Z,-2.68
2018-02-22T05:44:17.558Z,-2.63
2018-02-22T05:45:27.511Z,-2.62
2018-02-22T05:46:37.470Z,-2.58
2018-02-22T05:47:47.172Z,-2.68
2018-02-22T05:48:56.875Z,-2.65
2018-02-22T05:50:06.579Z,-2.72
2018-02-22T05:51:16.545Z,-2.63
2018-02-22T05:52:26.241Z,-2.7
2018-02-22T05:53:35.937Z,-2.73
2018-02-22T05:54:45.896Z,-2.73
2018-02-22T05:55:55.345Z,-2.68
2018-02-22T05:57:05.042Z,-2.7
2018-02-22T05:58:14.749Z,-2.57
2018-02-22T05:59:24.435Z,-2.76
2018-02-22T06:00:34.130Z,-2.62
2018-02-22T06:01:43.822Z,-2.73
2018-02-22T06:02:53.256Z,-2.73
2018-02-22T06:04:02.704Z,-2.68
2018-02-22T06:05:12.412Z,-2.65
2018-02-22T06:06:22.113Z,-2.78
2018-02-22T06:07:31.807Z,-2.75
2018-02-22T06:08:41.264Z,-2.73
2018-02-22T06:09:50.972Z,-2.75
2018-02-22T06:11:00.910Z,-2.76
2018-02-22T06:12:10.627Z,-2.81
2018-02-22T06:13:20.581Z,-2.83
2018-02-22T06:14:30.547Z,-2.89
2018-02-22T06:15:40.515Z,-2.81
2018-02-22T06:16:50.217Z,-2.93
2018-02-22T06:17:59.647Z,-2.83
2018-02-22T06:19:09.354Z,-2.8
2018-02-22T06:20:19.056Z,-2.8
2018-02-22T06:21:28.758Z,-2.76
2018-02-22T06:22:38.471Z,-2.93
2018-02-22T06:23:48.446Z,-2.89
2018-02-22T06:24:58.648Z,-2.94
2018-02-22T06:26:08.088Z,-2.96
2018-02-22T06:27:17.786Z,-2.81
2018-02-22T06:28:27.490Z,-2.87
2018-02-22T06:29:37.437Z,-3.01
2018-02-22T06:30:47.418Z,-2.93
2018-02-22T06:31:57.388Z,-2.98
2018-02-22T06:33:07.359Z,-2.91
2018-02-22T06:34:16.821Z,-2.89
2018-02-22T06:35:26.772Z,-2.94
2018-02-22T06:36:36.491Z,-2.89
2018-02-22T06:37:45.929Z,-2.93
2018-02-22T06:38:55.624Z,-2.93
2018-02-22T06:40:05.084Z,-2.89
2018-02-22T06:41:14.788Z,-2.81
2018-02-22T06:42:24.766Z,-2.76
2018-02-22T06:43:34.492Z,-2.81
2018-02-22T06:44:43.717Z,-2.84
2018-02-22T06:45:53.205Z,-2.83
2018-02-22T06:47:03.165Z,-2.81
2018-02-22T06:48:13.110Z,-2.81
2018-02-22T06:49:23.059Z,-2.76
2018-02-22T06:50:32.488Z,-2.78
2018-02-22T06:51:42.189Z,-2.84
2018-02-22T06:52:51.891Z,-2.81
2018-02-22T06:54:01.344Z,-2.83
2018-02-22T06:55:11.347Z,-2.8
2018-02-22T06:56:21.055Z,-2.76
2018-02-22T06:57:30.748Z,-2.72
2018-02-22T06:58:40.456Z,-2.78
2018-02-22T06:59:49.622Z,-2.76
2018-02-22T07:00:59.324Z,-2.73
2018-02-22T07:02:09.034Z,-2.63
2018-02-22T07:03:19.006Z,-2.65
2018-02-22T07:04:28.953Z,-2.55
2018-02-22T07:05:38.679Z,-2.61
2018-02-22T07:06:48.119Z,-2.55
2018-02-22T07:07:57.826Z,-2.5
2018-02-22T07:09:07.813Z,-2.42
2018-02-22T07:10:17.803Z,-2.51
2018-02-22T07:11:27.784Z,-2.42
2018-02-22T07:12:37.752Z,-2.34
2018-02-22T07:13:47.443Z,-2.29
2018-02-22T07:14:57.466Z,-2.28
2018-02-22T07:16:07.437Z,-2.23
2018-02-22T07:17:17.396Z,-2.14
2018-02-22T07:18:27.343Z,-2.13
2018-02-22T07:19:36.791Z,-2.14
2018-02-22T07:20:46.500Z,-2.1
2018-02-22T07:21:56.216Z,-2.05
2018-02-22T07:23:16.650Z,-1.99
2018-02-22T07:24:26.852Z,-1.93
2018-02-22T07:25:36.816Z,-2.02
2018-02-22T07:26:46.249Z,-2.05
2018-02-22T07:27:55.981Z,-1.99
2018-02-22T07:29:05.942Z,-1.94
2018-02-22T07:30:15.388Z,-1.84
2018-02-22T07:31:25.097Z,-1.93
2018-02-22T07:32:35.058Z,-1.79
2018-02-22T07:33:44.240Z,-1.87
2018-02-22T07:34:53.938Z,-1.82
2018-02-22T07:36:03.644Z,-1.68
2018-02-22T07:37:13.343Z,-1.69
2018-02-22T07:38:22.784Z,-1.63
2018-02-22T07:39:32.502Z,-1.57
2018-02-22T07:40:42.513Z,-1.58
2018-02-22T07:41:52.219Z,-1.5
2018-02-22T07:43:02.178Z,-1.42
2018-02-22T07:44:12.148Z,-1.4
2018-02-22T07:45:21.584Z,-1.36
2018-02-22T07:46:31.555Z,-1.22
2018-02-22T07:47:41.518Z,-1.3
2018-02-22T07:48:51.496Z,-1.19
2018-02-22T07:50:01.469Z,-1.14
2018-02-22T07:51:11.460Z,-1.07
2018-02-22T07:52:21.208Z,-1.06
2018-02-22T07:53:30.906Z,-1.11
2018-02-22T07:54:40.359Z,-1
2018-02-22T07:55:50.613Z,-1.03
2018-02-22T07:57:00.614Z,-1.01
2018-02-22T07:58:10.074Z,-0.89
2018-02-22T07:59:19.529Z,-0.89
2018-02-22T08:00:29.243Z,-0.8
2018-02-22T08:01:38.978Z,-0.8
2018-02-22T08:02:48.708Z,-0.82
2018-02-22T08:03:58.401Z,-0.64
2018-02-22T08:05:08.102Z,-0.75
2018-02-22T08:06:18.089Z,-0.67
2018-02-22T08:07:27.541Z,-0.63
2018-02-22T08:08:37.012Z,-0.64
2018-02-22T08:09:46.717Z,-0.62
2018-02-22T08:10:55.916Z,-0.51
2018-02-22T08:12:06.159Z,-0.46
2018-02-22T08:13:15.604Z,-0.41
2018-02-22T08:14:25.570Z,-0.39
2018-02-22T08:15:35.569Z,-0.33
2018-02-22T08:16:45.302Z,-0.24
2018-02-22T08:17:55.030Z,-0.03
2018-02-22T08:19:04.465Z,0.12
2018-02-22T08:20:13.942Z,0.49
2018-02-22T08:21:23.120Z,0.68
2018-02-22T08:22:32.818Z,0.94
2018-02-22T08:23:42.549Z,1.2
2018-02-22T08:24:52.252Z,1.36
2018-02-22T08:26:01.961Z,1.53
2018-02-22T08:27:11.413Z,1.6
2018-02-22T08:28:21.220Z,1.89
2018-02-22T08:29:30.675Z,2.08
2018-02-22T08:30:40.387Z,2.32
2018-02-22T08:31:50.357Z,2.47
2018-02-22T08:32:59.864Z,2.79
2018-02-22T08:34:09.313Z,2.85
2018-02-22T08:35:19.269Z,2.98
2018-02-22T08:36:29.000Z,3.05
2018-02-22T08:37:38.726Z,3.12
2018-02-22T08:38:48.703Z,3.22
2018-02-22T08:39:58.159Z,3.26
2018-02-22T08:41:08.168Z,3.16
2018-02-22T08:42:18.147Z,3.24
2018-02-22T08:43:28.192Z,3.19
2018-02-22T08:44:38.179Z,3.27
2018-02-22T08:45:48.270Z,3.19
2018-02-22T08:46:58.240Z,3.18
2018-02-22T08:48:07.680Z,3.26
2018-02-22T08:49:17.390Z,3.37
2018-02-22T08:50:27.101Z,3.56
2018-02-22T08:51:36.828Z,3.66
2018-02-22T08:52:47.055Z,3.84
2018-02-22T08:53:57.035Z,3.89
2018-02-22T08:55:06.764Z,4.13
2018-02-22T08:56:15.973Z,4.53
2018-02-22T08:57:25.422Z,4.63
2018-02-22T08:58:35.362Z,4.94
2018-02-22T08:59:45.432Z,5.07
2018-02-22T09:00:55.449Z,5.28
2018-02-22T09:02:05.457Z,5.59
2018-02-22T09:03:15.391Z,5.72
2018-02-22T09:04:25.121Z,5.62
2018-02-22T09:05:34.842Z,5.9
2018-02-22T09:06:44.840Z,6.19
2018-02-22T09:07:54.546Z,6.1
2018-02-22T09:09:04.535Z,5.83
2018-02-22T09:10:14.217Z,5.8
2018-02-22T09:11:23.942Z,5.84
2018-02-22T09:12:33.910Z,6.13
2018-02-22T09:13:43.652Z,6.38
2018-02-22T09:14:53.649Z,6.6
2018-02-22T09:16:03.126Z,6.85
2018-02-22T09:17:12.627Z,7.21
2018-02-22T09:18:22.348Z,7.28
2018-02-22T09:19:32.333Z,7.48
2018-02-22T09:20:41.849Z,7.77
2018-02-22T09:21:51.376Z,7.87
2018-02-22T09:23:01.126Z,7.75
2018-02-22T09:24:10.107Z,7.13
2018-02-22T09:25:19.815Z,6.72
2018-02-22T09:26:29.275Z,6.74
2018-02-22T09:27:39.456Z,6.74
2018-02-22T09:28:48.915Z,6.36
2018-02-22T09:29:58.633Z,6.56
2018-02-22T09:31:08.369Z,6.7
2018-02-22T09:32:17.764Z,6.85
2018-02-22T09:33:27.750Z,6.95
2018-02-22T09:34:37.204Z,6.86
2018-02-22T09:35:47.164Z,6.95
2018-02-22T09:36:56.954Z,7.37
2018-02-22T09:38:06.411Z,7.32
2018-02-22T09:39:15.865Z,7.26
2018-02-22T09:40:25.850Z,7.33
2018-02-22T09:41:35.848Z,7.33
2018-02-22T09:42:45.831Z,7.01
2018-02-22T09:43:55.289Z,6.85
2018-02-22T09:45:04.763Z,6.53
2018-02-22T09:46:14.496Z,6.2
2018-02-22T09:47:24.493Z,5.83
2018-02-22T09:48:34.518Z,5.83
2018-02-22T09:49:44.006Z,6.13
2018-02-22T09:50:53.744Z,6.39
2018-02-22T09:52:03.727Z,6.9
2018-02-22T09:53:13.199Z,7
2018-02-22T09:54:23.170Z,7.07
2018-02-22T09:55:32.887Z,6.95
2018-02-22T09:56:42.665Z,7.33
2018-02-22T09:57:52.461Z,7.33
2018-02-22T09:59:02.229Z,6.93
2018-02-22T10:00:12.229Z,6.96
2018-02-22T10:01:21.707Z,7.31
2018-02-22T10:02:31.456Z,7.64
2018-02-22T10:03:40.977Z,7.91
2018-02-22T10:04:50.436Z,8.49
2018-02-22T10:06:00.155Z,8.84
2018-02-22T10:07:09.873Z,9.22
2018-02-22T10:08:19.915Z,9.54
2018-02-22T10:09:29.381Z,9.31
2018-02-22T10:10:39.112Z,8.78
2018-02-22T10:11:48.342Z,8.63
2018-02-22T10:12:57.847Z,8.74
2018-02-22T10:14:07.834Z,8.66
2018-02-22T10:15:17.299Z,8.5
2018-02-22T10:16:27.291Z,8.32
2018-02-22T10:17:37.250Z,8.66
2018-02-22T10:18:46.449Z,8.9
2018-02-22T10:19:56.421Z,8.99
2018-02-22T10:21:06.388Z,9.39
2018-02-22T10:22:16.369Z,9.48
2018-02-22T10:23:26.095Z,9.26
2018-02-22T10:24:35.296Z,8.82
2018-02-22T10:25:45.290Z,8.81
2018-02-22T10:26:55.280Z,8.46
2018-02-22T10:28:05.278Z,8.16
2018-02-22T10:29:14.998Z,7.87
2018-02-22T10:30:24.987Z,7.39
2018-02-22T10:31:34.964Z,7.31
2018-02-22T10:32:44.938Z,7.53
2018-02-22T10:33:54.919Z,7.78
2018-02-22T10:35:04.927Z,8.11
2018-02-22T10:36:14.386Z,8.27
2018-02-22T10:37:23.833Z,8.23
2018-02-22T10:38:33.559Z,8.68
2018-02-22T10:39:43.025Z,8.46
2018-02-22T10:40:52.760Z,8.56
2018-02-22T10:42:02.771Z,8.81
2018-02-22T10:43:12.781Z,8.92
2018-02-22T10:44:22.529Z,8.53
2018-02-22T10:45:32.248Z,8.35
2018-02-22T10:46:42.217Z,8.03
2018-02-22T10:47:52.202Z,8.03
2018-02-22T10:49:01.934Z,8.03
2018-02-22T10:50:11.687Z,8.39
2018-02-22T10:51:21.747Z,8.38
2018-02-22T10:52:31.740Z,8.64
2018-02-22T10:53:41.208Z,8.82
2018-02-22T10:54:51.014Z,8.81
2018-02-22T10:56:00.487Z,8.69
2018-02-22T10:57:10.664Z,7.87
2018-02-22T10:58:20.671Z,7.59
2018-02-22T10:59:30.670Z,7.43
2018-02-22T11:00:40.393Z,7.32
2018-02-22T11:01:50.171Z,7.18
2018-02-22T11:02:59.893Z,7.07
2018-02-22T11:04:09.629Z,7.28
2018-02-22T11:05:19.623Z,7.8
2018-02-22T11:06:29.381Z,8.32
2018-02-22T11:07:39.100Z,8.84
2018-02-22T11:08:48.850Z,9.09
2018-02-22T11:09:58.848Z,8.97
2018-02-22T11:11:08.842Z,9.03
2018-02-22T11:12:18.819Z,9.4
2018-02-22T11:13:28.565Z,9.63
2018-02-22T11:14:38.717Z,10.2
2018-02-22T11:15:48.495Z,10.69
2018-02-22T11:16:57.951Z,10.76
2018-02-22T11:18:07.432Z,10.06
2018-02-22T11:19:17.417Z,10.13
2018-02-22T11:20:27.404Z,10.23
2018-02-22T11:21:36.893Z,10.53
2018-02-22T11:22:46.610Z,11.05
2018-02-22T11:23:56.083Z,11.44
2018-02-22T11:25:06.082Z,11.44
2018-02-22T11:26:15.562Z,11.35
2018-02-22T11:27:25.022Z,11.41
2018-02-22T11:28:34.952Z,11.25
2018-02-22T11:29:44.988Z,11.31
2018-02-22T11:30:54.956Z,11.19
2018-02-22T11:32:04.417Z,11.15
2018-02-22T11:33:14.428Z,11.19
2018-02-22T11:34:24.188Z,11.04
2018-02-22T11:35:33.886Z,11.1
2018-02-22T11:36:43.905Z,11.34
2018-02-22T11:37:53.625Z,11.26
2018-02-22T11:39:03.644Z,11.13
2018-02-22T11:40:13.641Z,11.13
2018-02-22T11:41:23.617Z,11.05
2018-02-22T11:42:33.593Z,10.77
2018-02-22T11:43:43.598Z,10.12
2018-02-22T11:44:53.328Z,9.81
2018-02-22T11:46:03.306Z,9.72
2018-02-22T11:47:12.772Z,9.62
2018-02-22T11:48:22.230Z,9.81
2018-02-22T11:49:31.970Z,9.4
2018-02-22T11:50:41.687Z,9.19
2018-02-22T11:51:51.461Z,8.97
2018-02-22T11:53:01.264Z,9.12
2018-02-22T11:54:11.252Z,8.9
2018-02-22T11:55:20.460Z,8.74
2018-02-22T11:56:29.670Z,8.49
2018-02-22T11:57:39.131Z,8.36
2018-02-22T11:58:48.357Z,8.39
2018-02-22T11:59:57.804Z,8.5
2018-02-22T12:01:07.800Z,8.44
2018-02-22T12:02:17.263Z,8.53
2018-02-22T12:03:27.241Z,8.35
2018-02-22T12:04:36.973Z,8.5
2018-02-22T12:05:46.681Z,8.64
2018-02-22T12:06:55.870Z,8.71
2018-02-22T12:08:05.598Z,8.86
2018-02-22T12:09:15.402Z,8.64
2018-02-22T12:10:25.179Z,8.82
2018-02-22T12:11:34.921Z,8.93
2018-02-22T12:12:44.678Z,9.05
2018-02-22T12:13:54.652Z,9.34
2018-02-22T12:15:04.630Z,9.42
2018-02-22T12:16:14.370Z,8.92
2018-02-22T12:17:24.353Z,8.69
2018-02-22T12:18:34.325Z,8.36
2018-02-22T12:19:44.304Z,8.45
2018-02-22T12:20:54.298Z,8.81
2018-02-22T12:22:04.256Z,9
2018-02-22T12:23:14.245Z,8.99
2018-02-22T12:24:23.978Z,8.92
2018-02-22T12:25:33.970Z,8.87
2018-02-22T12:26:43.676Z,8.54
2018-02-22T12:27:53.405Z,8.26
2018-02-22T12:29:03.418Z,7.98
2018-02-22T12:30:13.389Z,8.11
2018-02-22T12:31:23.230Z,8.23
2018-02-22T12:32:32.937Z,8.39
2018-02-22T12:33:42.653Z,8.32
2018-02-22T12:34:52.635Z,8.36
2018-02-22T12:36:02.087Z,8.38
2018-02-22T12:37:11.802Z,7.99
2018-02-22T12:38:21.515Z,7.67
2018-02-22T12:39:31.495Z,7.64
2018-02-22T12:40:41.470Z,7.29
2018-02-22T12:41:51.189Z,7.01
2018-02-22T12:43:01.163Z,7
2018-02-22T12:44:10.357Z,7.03
2018-02-22T12:45:20.077Z,6.93
2018-02-22T12:46:29.287Z,6.93
2018-02-22T12:47:39.270Z,6.85
2018-02-22T12:48:48.997Z,6.9
2018-02-22T12:49:58.462Z,7.01
2018-02-22T12:51:08.173Z,7.33
2018-02-22T12:52:17.937Z,7.56
2018-02-22T12:53:27.904Z,7.77
2018-02-22T12:54:37.618Z,8.11
2018-02-22T12:55:47.085Z,8.5
2018-02-22T12:56:56.816Z,8.77
2018-02-22T12:58:06.549Z,8.89
2018-02-22T12:59:16.262Z,9.05
2018-02-22T13:00:25.974Z,9.44
2018-02-22T13:01:35.932Z,9.77
2018-02-22T13:02:45.916Z,9.91
2018-02-22T13:03:55.641Z,9.7
2018-02-22T13:05:05.378Z,9.59
2018-02-22T13:06:15.377Z,9.3
2018-02-22T13:07:25.280Z,9.3
2018-02-22T13:08:34.739Z,9.37
2018-02-22T13:09:44.203Z,9.44
2018-02-22T13:10:54.170Z,9.58
2018-02-22T13:12:04.141Z,9.58
2018-02-22T13:13:13.861Z,9.55
2018-02-22T13:14:23.363Z,9.45
2018-02-22T13:15:33.095Z,9.33
2018-02-22T13:16:42.810Z,9.05
2018-02-22T13:17:52.841Z,9
2018-02-22T13:19:02.851Z,8.66
2018-02-22T13:20:12.590Z,8.17
2018-02-22T13:21:22.832Z,7.7
2018-02-22T13:22:32.609Z,7.46
2018-02-22T13:23:42.078Z,7.51
2018-02-22T13:24:52.066Z,7.53
2018-02-22T13:26:01.516Z,7.62
2018-02-22T13:27:11.481Z,7.75
2018-02-22T13:28:21.197Z,7.72
2018-02-22T13:29:30.930Z,7.53
2018-02-22T13:30:40.920Z,7.53
2018-02-22T13:31:50.890Z,7.46
2018-02-22T13:33:00.631Z,7.39
2018-02-22T13:34:10.607Z,7.53
2018-02-22T13:35:19.809Z,7.41
2018-02-22T13:36:29.534Z,7.75
2018-02-22T13:37:39.248Z,7.74
2018-02-22T13:38:48.964Z,7.61
2018-02-22T13:39:58.683Z,7.44
2018-02-22T13:41:08.401Z,7.5
2018-02-22T13:42:17.857Z,7.59
2018-02-22T13:43:27.854Z,7.72
2018-02-22T13:44:37.839Z,7.48
2018-02-22T13:45:47.027Z,7.48
2018-02-22T13:46:56.745Z,7.28
2018-02-22T13:48:06.725Z,7.43
2018-02-22T13:49:16.460Z,7.21
2018-02-22T13:50:26.200Z,7.04
2018-02-22T13:51:35.660Z,6.89
2018-02-22T13:52:45.384Z,6.75
2018-02-22T13:53:54.894Z,6.59
2018-02-22T13:55:04.596Z,6.38
2018-02-22T13:56:14.310Z,6.32
2018-02-22T13:57:24.036Z,6.02
2018-02-22T13:58:34.030Z,5.83
2018-02-22T13:59:43.743Z,5.72
2018-02-22T14:00:53.718Z,5.76
2018-02-22T14:02:03.688Z,5.79
2018-02-22T14:03:13.672Z,6.07
2018-02-22T14:04:23.385Z,6.15
2018-02-22T14:05:33.100Z,6.41
2018-02-22T14:06:43.065Z,6.35
2018-02-22T14:07:53.065Z,6.36
2018-02-22T14:09:03.034Z,6.57
2018-02-22T14:10:12.497Z,6.72
2018-02-22T14:11:22.224Z,6.75
2018-02-22T14:12:32.211Z,6.87
2018-02-22T14:13:41.411Z,6.72
2018-02-22T14:14:51.378Z,6.59
2018-02-22T14:16:01.089Z,6.5
2018-02-22T14:17:10.912Z,6.35
2018-02-22T14:18:21.025Z,6.35
2018-02-22T14:19:30.520Z,6.29
2018-02-22T14:20:40.526Z,6.12
2018-02-22T14:21:50.232Z,6.12
2018-02-22T14:23:00.212Z,6.2
2018-02-22T14:24:09.656Z,6.09
2018-02-22T14:25:18.870Z,6.12
2018-02-22T14:26:28.592Z,5.97
2018-02-22T14:27:38.577Z,5.91
2018-02-22T14:28:48.612Z,6.06
2018-02-22T14:29:58.675Z,6.01
2018-02-22T14:31:08.431Z,6.17
2018-02-22T14:32:18.398Z,6.05
2018-02-22T14:33:28.102Z,6.1
2018-02-22T14:34:38.060Z,6.1
2018-02-22T14:35:48.030Z,6.13
2018-02-22T14:36:57.495Z,5.91
2018-02-22T14:38:06.938Z,5.76
2018-02-22T14:39:16.645Z,5.74
2018-02-22T14:40:26.609Z,5.79
2018-02-22T14:41:36.600Z,5.7
2018-02-22T14:42:46.340Z,5.46
2018-02-22T14:43:56.316Z,5.26
2018-02-22T14:45:06.026Z,5.19
2018-02-22T14:46:15.740Z,5.18
2018-02-22T14:47:25.713Z,5.2
2018-02-22T14:48:35.168Z,5.19
2018-02-22T14:49:45.127Z,5.16
2018-02-22T14:50:55.137Z,4.98
2018-02-22T14:52:04.609Z,4.98
2018-02-22T14:53:14.064Z,4.86
2018-02-22T14:54:23.513Z,4.87
2018-02-22T14:55:33.505Z,4.67
2018-02-22T14:56:42.432Z,4.68
2018-02-22T14:57:52.141Z,4.68
2018-02-22T14:59:02.138Z,4.7
2018-02-22T15:00:11.591Z,4.74
2018-02-22T15:01:21.299Z,4.63
2018-02-22T15:02:30.944Z,4.66
2018-02-22T15:03:40.126Z,4.68
2018-02-22T15:04:49.850Z,4.74
2018-02-22T15:05:59.554Z,4.67
2018-02-22T15:07:09.524Z,4.7
2018-02-22T15:08:19.491Z,4.68
2018-02-22T15:09:28.935Z,4.71
2018-02-22T15:10:38.913Z,4.6
2018-02-22T15:11:48.635Z,4.66
2018-02-22T15:12:58.614Z,4.63
2018-02-22T15:14:08.576Z,4.6
2018-02-22T15:15:18.298Z,4.6